Moscow, ID (83843)

5:01 PM PDT on September 02, 2015 (GMT -0700)
APRSWXNET | | Change Station
CLOSE
Current Station
Personal Weather Station
Location: Moscow, ID
Elevation: 2667 ft
Nearby Weather Stations

Elev 2667 ft 46.73 °N, 116.97 °W | Updated 38 minutes ago

Rain
Rain
56 °F
Feels Like 56 °F
N
0
Wind Variable Wind from SW
Gusts 1.0 mph

Today
High -- | Low -- °F
--% Chance of Precip.
Yesterday
High -- | Low -- °F
Precip. -- in
6:08 AM 7:25 PM
Waning Gibbous, 76% visible
Pressure 29.89 in
Visibility 10.0 miles
Clouds Overcast 7000 ft
Dew Point 49 °F
Humidity 77%
Rainfall in
Snow Depth Not available.
UV 1 out of 12
Pollen 7.70 out of 12
Air Quality Not available.
Flu Activity Not available.
METAR KPUW 022353Z AUTO 19005KT 10SM -RA OVC070 14/09 A2991 RMK AO2 RAE2259B23 SLP122 P0000 60000 T01440089 10156 20128 55006
Pressure 29.89 in
Visibility 10.0 miles
Clouds Overcast 7000 ft
Dew Point 49 °F
Humidity 77%
Rainfall in
Snow Depth Not available.
UV 1 out of 12
Pollen 7.70 out of 12
Air Quality Not available.
Flu Activity Not available.
METAR KPUW 022353Z AUTO 19005KT 10SM -RA OVC070 14/09 A2991 RMK AO2 RAE2259B23 SLP122 P0000 60000 T01440089 10156 20128 55006

10-Day Weather Forecast

×

Almanac

Astronomy

Sep. 02, 2015 Rise Set
Actual Time
Civil Twilight
Nautical Twilight
Astronomical Twilight
Moon
Length of Visible Light
Length of Day
Tomorrow will be .
, % of the Moon is Illuminated

Today's Extremes

State Highs State Lows

Community

WunderPhotos

Upload Photos

1,851,846 photos uploaded!

WunderBlogs® & News

Nearby

Air Quality

  Air Quality AQ Index Pollutant
Not available.

Snow Depth

Station Depth Elevation

Earthquake Activity

City Distance Mag. Time & Date
Minimum magnitude displayed is 2.5.

Coastal Water Temperatures

Place Temperature

Stations

Nearby Weather Stations

Station Location Temp. Windchill Dew Point Humidity Wind Precip. Elev Updated Type